Dinant, Belgium
Current Conditions -  °F | °C
As of 12:55 PM on Friday 19 Dec 2014 (Local Time) from EBFS Reporting Station
Light Rain Light Rain  
Wind Chill: 10°   Ceiling: 900
Heat Index: 10°   Visibility: 2.5mi
Dew Point:   Wind: 20mph
Humidity: 94%   Direction: 230°SW
Pressure: 29.91"   Gusts: NA
Location:  50.26°N, 4.91°E
Report Text: EBFS 191155Z 23017KT 4000 -RADZ SCT006 BKN009 BKN012 10/09 Q1013 YLO
Loading
Personal Weather Stations






























Interactive Weather Map New forecast layout! Learn more

10-Day Weather Forecast

Advertisements
Track Severe Weather on mobile